Time;durP1;ratioP1;P1;durP2;ratioP2;P2;SDS_P1;SDS_P2;PMS_P1;PMS_P2;Temp;Humidity;BMP_temperature;BMP_pressure;BME280_temperature;BME280_humidity;BME280_pressure;Samples;Min_cycle;Max_cycle;Signal;HPM_P1;HPM_P2
2023/07/16 00:00:57;;;;;;;2.53;1.30;;;;;;;;;;5059778;27;88335;-56
2023/07/16 00:03:26;;;;;;;2.33;1.37;;;;;;;;;;5059150;27;88056;-56
2023/07/16 00:05:56;;;;;;;1.47;0.90;;;;;;;;;;5059605;27;88866;-56
2023/07/16 00:08:24;;;;;;;2.47;1.13;;;;;;;;;;5059074;27;88027;-56
2023/07/16 00:10:53;;;;;;;1.70;1.30;;;;;;;;;;5056558;27;88722;-56
2023/07/16 00:13:21;;;;;;;3.20;1.33;;;;;;;;;;5059197;27;88127;-56
2023/07/16 00:15:49;;;;;;;4.20;1.40;;;;;;;;;;5039121;27;88462;-56
2023/07/16 00:18:18;;;;;;;2.40;1.50;;;;;;;;;;5039371;27;87311;-56
2023/07/16 00:20:46;;;;;;;1.47;1.33;;;;;;;;;;5040070;27;89509;-56
2023/07/16 00:23:16;;;;;;;2.70;1.67;;;;;;;;;;5037537;27;89257;-56
2023/07/16 00:25:45;;;;;;;1.73;1.03;;;;;;;;;;5039604;27;88587;-56
2023/07/16 00:28:13;;;;;;;1.73;1.40;;;;;;;;;;5042021;27;87690;-56
2023/07/16 00:30:41;;;;;;;1.90;1.20;;;;;;;;;;5041861;27;88583;-56
2023/07/16 00:33:10;;;;;;;2.50;1.27;;;;;;;;;;5043286;27;88984;-56
2023/07/16 00:35:38;;;;;;;2.20;0.80;;;;;;;;;;5061725;27;89409;-57
2023/07/16 00:38:07;;;;;;;1.70;1.23;;;;;;;;;;5062487;27;87538;-57
2023/07/16 00:40:36;;;;;;;1.43;1.13;;;;;;;;;;5059661;27;88706;-56
2023/07/16 00:43:05;;;;;;;1.80;0.80;;;;;;;;;;5058180;27;88130;-56
2023/07/16 00:45:33;;;;;;;2.50;1.20;;;;;;;;;;5041728;27;87331;-56
2023/07/16 00:48:02;;;;;;;3.40;1.93;;;;;;;;;;5041528;27;87679;-56
2023/07/16 00:50:33;;;;;;;2.60;1.20;;;;;;;;;;5042907;27;87229;-56
2023/07/16 00:53:02;;;;;;;1.20;1.00;;;;;;;;;;5041088;28;87513;-56
2023/07/16 00:55:31;;;;;;;1.73;1.07;;;;;;;;;;5041525;27;89003;-56
2023/07/16 00:58:02;;;;;;;1.37;1.10;;;;;;;;;;5041033;27;89243;-56
2023/07/16 01:00:31;;;;;;;1.63;0.90;;;;;;;;;;5055600;27;88667;-56
2023/07/16 01:02:59;;;;;;;1.57;0.80;;;;;;;;;;5041223;27;90677;-56
2023/07/16 01:05:28;;;;;;;2.53;0.90;;;;;;;;;;5041539;27;87761;-56
2023/07/16 01:07:58;;;;;;;0.83;0.80;;;;;;;;;;5041160;27;87657;-56
2023/07/16 01:10:27;;;;;;;0.80;0.80;;;;;;;;;;5042030;27;89831;-57
2023/07/16 01:12:55;;;;;;;1.70;1.30;;;;;;;;;;5041055;27;88038;-56
2023/07/16 01:15:25;;;;;;;2.90;1.03;;;;;;;;;;5059255;27;87765;-56
2023/07/16 01:17:53;;;;;;;1.67;1.03;;;;;;;;;;5061679;27;87604;-55
2023/07/16 01:20:22;;;;;;;1.20;0.80;;;;;;;;;;5061320;27;88457;-56
2023/07/16 01:22:54;;;;;;;2.50;0.73;;;;;;;;;;5056966;27;89997;-56
2023/07/16 01:25:26;;;;;;;2.63;1.07;;;;;;;;;;5060929;27;89819;-56
2023/07/16 01:28:15;;;;;;;2.00;0.93;;;;;;;;;;5061539;27;87402;-56
2023/07/16 01:30:45;;;;;;;2.60;1.10;;;;;;;;;;5042194;27;89818;-56
2023/07/16 01:33:14;;;;;;;0.83;0.70;;;;;;;;;;5040677;27;87365;-56
2023/07/16 01:35:42;;;;;;;2.73;1.00;;;;;;;;;;5040890;27;87825;-56
2023/07/16 01:38:11;;;;;;;0.90;0.90;;;;;;;;;;5041016;27;87639;-56
2023/07/16 01:40:39;;;;;;;0.67;0.60;;;;;;;;;;5040955;27;89875;-56
2023/07/16 01:43:08;;;;;;;1.93;1.30;;;;;;;;;;5056148;27;89209;-56
2023/07/16 01:45:36;;;;;;;2.27;1.13;;;;;;;;;;5041732;27;89436;-56
2023/07/16 01:48:07;;;;;;;2.00;1.07;;;;;;;;;;5041413;27;88075;-56
2023/07/16 01:50:36;;;;;;;3.20;0.90;;;;;;;;;;5040646;27;87409;-56
2023/07/16 01:53:04;;;;;;;0.63;0.53;;;;;;;;;;5041078;27;89121;-56
2023/07/16 01:55:33;;;;;;;4.03;1.10;;;;;;;;;;5040749;27;87788;-56
2023/07/16 01:58:01;;;;;;;1.00;0.90;;;;;;;;;;5040731;27;87627;-56
2023/07/16 02:00:30;;;;;;;2.53;1.10;;;;;;;;;;5056479;27;89317;-56
2023/07/16 02:02:58;;;;;;;1.20;0.70;;;;;;;;;;5060331;27;88073;-56
2023/07/16 02:05:28;;;;;;;1.83;1.00;;;;;;;;;;5060898;27;88603;-56
2023/07/16 02:07:56;;;;;;;0.90;0.80;;;;;;;;;;5060204;27;87503;-56
2023/07/16 02:10:25;;;;;;;1.57;0.87;;;;;;;;;;5060683;27;89437;-57
2023/07/16 02:12:53;;;;;;;0.60;0.60;;;;;;;;;;5041093;27;89320;-56
2023/07/16 02:15:22;;;;;;;2.73;0.73;;;;;;;;;;5040302;28;89686;-56
2023/07/16 02:17:50;;;;;;;1.27;0.63;;;;;;;;;;5040670;28;87638;-57
2023/07/16 02:20:19;;;;;;;1.40;0.90;;;;;;;;;;5040083;27;89640;-56
2023/07/16 02:22:48;;;;;;;4.30;1.30;;;;;;;;;;5044560;27;87511;-56
2023/07/16 02:25:17;;;;;;;2.07;0.83;;;;;;;;;;5064173;27;88892;-56
2023/07/16 02:27:45;;;;;;;0.90;0.77;;;;;;;;;;5064043;27;87622;-57
2023/07/16 02:30:15;;;;;;;3.47;0.97;;;;;;;;;;5064001;27;89474;-56
2023/07/16 02:32:43;;;;;;;1.37;0.93;;;;;;;;;;5064004;27;88149;-57
2023/07/16 02:35:12;;;;;;;1.30;1.00;;;;;;;;;;5061993;27;87597;-56
2023/07/16 02:37:40;;;;;;;1.70;0.97;;;;;;;;;;5063950;27;87921;-56
2023/07/16 02:40:10;;;;;;;3.77;1.17;;;;;;;;;;5063899;27;88780;-57
2023/07/16 02:42:39;;;;;;;1.83;0.97;;;;;;;;;;5063481;27;88197;-56
2023/07/16 02:45:08;;;;;;;0.90;0.80;;;;;;;;;;5045836;27;87919;-56
2023/07/16 02:47:36;;;;;;;2.23;1.00;;;;;;;;;;5043797;27;87348;-56
2023/07/16 02:50:05;;;;;;;2.67;1.00;;;;;;;;;;5043081;27;89597;-56
2023/07/16 02:52:34;;;;;;;1.37;1.10;;;;;;;;;;5043180;27;88209;-56
2023/07/16 02:55:02;;;;;;;1.13;0.67;;;;;;;;;;5044416;27;87930;-56
2023/07/16 02:57:32;;;;;;;1.63;0.90;;;;;;;;;;5043704;27;87648;-56
2023/07/16 03:00:00;;;;;;;0.80;0.80;;;;;;;;;;5057224;27;88418;-56
2023/07/16 03:02:29;;;;;;;2.10;1.27;;;;;;;;;;5062972;27;90130;-56
2023/07/16 03:04:57;;;;;;;1.43;0.80;;;;;;;;;;5062645;27;89659;-57
2023/07/16 03:07:26;;;;;;;3.17;1.17;;;;;;;;;;5063491;27;87643;-57
2023/07/16 03:09:54;;;;;;;3.73;1.33;;;;;;;;;;5063409;27;89655;-56
2023/07/16 03:12:22;;;;;;;1.83;0.83;;;;;;;;;;5063498;27;89090;-57
2023/07/16 03:14:54;;;;;;;3.50;1.30;;;;;;;;;;5051799;27;88835;-56
2023/07/16 03:17:22;;;;;;;2.87;0.93;;;;;;;;;;5043447;27;87574;-56
2023/07/16 03:19:51;;;;;;;2.57;1.57;;;;;;;;;;5042850;27;88536;-56
2023/07/16 03:22:19;;;;;;;1.47;1.03;;;;;;;;;;5042892;27;88117;-55
2023/07/16 03:24:48;;;;;;;1.27;0.70;;;;;;;;;;5038944;27;87699;-56
2023/07/16 03:27:16;;;;;;;2.93;0.93;;;;;;;;;;5019785;28;87958;-56
2023/07/16 03:29:46;;;;;;;1.43;0.83;;;;;;;;;;5036863;27;87863;-56
2023/07/16 03:32:18;;;;;;;4.03;0.93;;;;;;;;;;5059883;27;89025;-56
2023/07/16 03:34:46;;;;;;;1.23;0.80;;;;;;;;;;5048143;27;88775;-56
2023/07/16 03:37:15;;;;;;;1.03;0.80;;;;;;;;;;5039745;27;87437;-56
2023/07/16 03:39:44;;;;;;;2.67;0.90;;;;;;;;;;5039790;27;88357;-56
2023/07/16 03:42:12;;;;;;;1.07;0.97;;;;;;;;;;5039305;27;88199;-55
2023/07/16 03:44:41;;;;;;;5.63;0.97;;;;;;;;;;5040767;27;88849;-56
2023/07/16 03:47:09;;;;;;;0.90;0.70;;;;;;;;;;5039193;27;87557;-56
2023/07/16 03:49:39;;;;;;;1.37;0.90;;;;;;;;;;5039446;27;88352;-56
2023/07/16 03:52:08;;;;;;;1.33;1.13;;;;;;;;;;5039462;27;91168;-56
2023/07/16 03:54:36;;;;;;;0.70;0.70;;;;;;;;;;5040830;27;92065;-56
2023/07/16 03:57:05;;;;;;;1.93;1.17;;;;;;;;;;5059745;27;87847;-56
2023/07/16 03:59:34;;;;;;;1.47;0.80;;;;;;;;;;5050736;27;89661;-56
2023/07/16 04:02:02;;;;;;;1.07;0.97;;;;;;;;;;5038847;27;89431;-58
2023/07/16 04:04:31;;;;;;;2.60;1.50;;;;;;;;;;5039200;27;88752;-56
2023/07/16 04:07:00;;;;;;;0.97;0.93;;;;;;;;;;5040605;27;87782;-56
2023/07/16 04:09:29;;;;;;;0.70;0.60;;;;;;;;;;5039307;27;88490;-57
2023/07/16 04:11:57;;;;;;;2.03;1.30;;;;;;;;;;5038867;27;87880;-56
2023/07/16 04:14:26;;;;;;;1.73;0.83;;;;;;;;;;5044176;27;88130;-55
2023/07/16 04:16:54;;;;;;;2.37;1.43;;;;;;;;;;5057334;27;87884;-56
2023/07/16 04:19:23;;;;;;;1.97;1.00;;;;;;;;;;5059086;27;87607;-56
2023/07/16 04:21:51;;;;;;;1.47;0.77;;;;;;;;;;5059365;27;88236;-56
2023/07/16 04:24:21;;;;;;;1.63;0.80;;;;;;;;;;5040604;27;88954;-56
2023/07/16 04:26:50;;;;;;;0.90;0.70;;;;;;;;;;5055867;27;87660;-58
2023/07/16 04:29:18;;;;;;;1.43;1.17;;;;;;;;;;5040626;27;89333;-56
2023/07/16 04:31:47;;;;;;;1.37;0.80;;;;;;;;;;5058926;27;88687;-56
2023/07/16 04:34:15;;;;;;;1.97;1.00;;;;;;;;;;5059378;27;89098;-55
2023/07/16 04:36:43;;;;;;;1.70;0.80;;;;;;;;;;5057464;27;87734;-56
2023/07/16 04:39:12;;;;;;;3.70;1.37;;;;;;;;;;5052576;27;88570;-56
2023/07/16 04:41:42;;;;;;;1.73;0.93;;;;;;;;;;5038484;27;88963;-56
2023/07/16 04:44:10;;;;;;;2.63;0.80;;;;;;;;;;5038016;27;88469;-56
2023/07/16 04:46:38;;;;;;;1.17;0.90;;;;;;;;;;5033732;27;88212;-56
2023/07/16 04:49:07;;;;;;;0.90;0.73;;;;;;;;;;5037105;27;89468;-56
2023/07/16 04:51:35;;;;;;;2.07;1.00;;;;;;;;;;5058044;27;88282;-56
2023/07/16 04:54:04;;;;;;;1.57;1.10;;;;;;;;;;5059003;27;89024;-56
2023/07/16 04:56:32;;;;;;;2.53;1.03;;;;;;;;;;5058982;27;87645;-56
2023/07/16 04:59:02;;;;;;;1.53;0.93;;;;;;;;;;5040529;27;89297;-56
2023/07/16 05:01:30;;;;;;;1.67;1.23;;;;;;;;;;5054332;27;88179;-55
2023/07/16 05:03:59;;;;;;;3.03;1.20;;;;;;;;;;5058553;27;87714;-56
2023/07/16 05:06:27;;;;;;;0.83;0.80;;;;;;;;;;5058348;27;88472;-56
2023/07/16 05:08:56;;;;;;;1.00;0.87;;;;;;;;;;5042780;27;88178;-56
2023/07/16 05:11:25;;;;;;;1.83;1.33;;;;;;;;;;5038074;27;88697;-56
2023/07/16 05:13:55;;;;;;;0.80;0.70;;;;;;;;;;5041342;27;87816;-56
2023/07/16 05:16:25;;;;;;;1.67;1.40;;;;;;;;;;5049440;27;87462;-56
2023/07/16 05:18:53;;;;;;;1.77;1.00;;;;;;;;;;5043781;27;88500;-56
2023/07/16 05:21:22;;;;;;;1.63;1.00;;;;;;;;;;5038075;27;88353;-56
2023/07/16 05:23:50;;;;;;;1.87;1.00;;;;;;;;;;5051105;27;89150;-56
2023/07/16 05:26:18;;;;;;;1.73;1.10;;;;;;;;;;5058078;27;87656;-56
2023/07/16 05:28:47;;;;;;;1.10;0.90;;;;;;;;;;5054387;27;89741;-56
2023/07/16 05:31:15;;;;;;;1.33;0.97;;;;;;;;;;5040286;27;88980;-56
2023/07/16 05:33:45;;;;;;;2.67;1.40;;;;;;;;;;5038188;27;89965;-58
2023/07/16 05:36:14;;;;;;;2.93;1.20;;;;;;;;;;5050608;27;87647;-56
2023/07/16 05:38:42;;;;;;;2.37;1.40;;;;;;;;;;5048893;27;89615;-58
2023/07/16 05:41:11;;;;;;;1.80;1.37;;;;;;;;;;5058270;27;89606;-57
2023/07/16 05:43:39;;;;;;;1.67;1.10;;;;;;;;;;5045172;27;87757;-57
2023/07/16 05:46:07;;;;;;;1.60;1.40;;;;;;;;;;5052592;27;87542;-56
2023/07/16 05:48:36;;;;;;;2.07;1.20;;;;;;;;;;5041671;27;89656;-57
2023/07/16 05:51:06;;;;;;;5.13;1.30;;;;;;;;;;5037236;27;88005;-56
2023/07/16 05:53:34;;;;;;;2.53;1.33;;;;;;;;;;5037683;27;87431;-56
2023/07/16 05:56:05;;;;;;;1.93;1.30;;;;;;;;;;5038493;27;87885;-56
2023/07/16 05:58:34;;;;;;;1.70;1.33;;;;;;;;;;5041008;27;88633;-56
2023/07/16 06:01:02;;;;;;;1.97;1.53;;;;;;;;;;5041172;27;89052;-56
2023/07/16 06:03:30;;;;;;;1.93;1.40;;;;;;;;;;5041108;27;88124;-56
2023/07/16 06:05:59;;;;;;;1.53;1.00;;;;;;;;;;5041436;27;87705;-56
2023/07/16 06:08:29;;;;;;;2.33;1.50;;;;;;;;;;5040961;27;87427;-56
2023/07/16 06:10:57;;;;;;;1.37;1.20;;;;;;;;;;5040960;27;88082;-56
2023/07/16 06:13:25;;;;;;;1.60;1.17;;;;;;;;;;5040634;27;87799;-56
2023/07/16 06:15:54;;;;;;;3.90;1.13;;;;;;;;;;5041256;27;87730;-56
2023/07/16 06:18:22;;;;;;;2.27;1.60;;;;;;;;;;5052803;27;89321;-57
2023/07/16 06:20:51;;;;;;;3.40;1.30;;;;;;;;;;5049563;27;90207;-56
2023/07/16 06:23:20;;;;;;;3.13;1.23;;;;;;;;;;5047380;27;89780;-56
2023/07/16 06:25:50;;;;;;;2.23;1.50;;;;;;;;;;5042200;27;87670;-56
2023/07/16 06:28:18;;;;;;;2.10;1.27;;;;;;;;;;5042144;27;89791;-56
2023/07/16 06:30:46;;;;;;;1.10;1.00;;;;;;;;;;5040647;27;88447;-56
2023/07/16 06:33:15;;;;;;;2.67;1.73;;;;;;;;;;5040934;27;88792;-57
2023/07/16 06:35:46;;;;;;;2.83;1.70;;;;;;;;;;5040935;28;87518;-56
2023/07/16 06:38:14;;;;;;;3.37;1.47;;;;;;;;;;5044070;27;91788;-56
2023/07/16 06:40:48;;;;;;;2.33;1.63;;;;;;;;;;5049125;27;88231;-56
2023/07/16 06:43:17;;;;;;;3.40;1.40;;;;;;;;;;5050899;27;91311;-56
2023/07/16 06:45:46;;;;;;;1.43;1.33;;;;;;;;;;5046343;27;87910;-56
2023/07/16 06:48:14;;;;;;;2.43;1.30;;;;;;;;;;5040015;27;89539;-57
2023/07/16 06:50:43;;;;;;;2.57;1.30;;;;;;;;;;5034441;27;88267;-56
2023/07/16 06:53:12;;;;;;;3.93;1.73;;;;;;;;;;5029903;27;88190;-57
2023/07/16 06:55:40;;;;;;;3.70;1.80;;;;;;;;;;5041014;27;87715;-56
2023/07/16 06:58:11;;;;;;;2.40;1.90;;;;;;;;;;5040888;27;88134;-56
2023/07/16 07:00:41;;;;;;;2.13;1.60;;;;;;;;;;5040432;27;88985;-56
2023/07/16 07:03:09;;;;;;;2.87;1.93;;;;;;;;;;5040469;27;88923;-56
2023/07/16 07:05:41;;;;;;;3.00;2.17;;;;;;;;;;5041890;27;88332;-56
2023/07/16 07:08:10;;;;;;;3.77;1.93;;;;;;;;;;5039208;27;89742;-56
2023/07/16 07:10:39;;;;;;;3.67;1.70;;;;;;;;;;5039307;27;89957;-56
2023/07/16 07:13:08;;;;;;;3.83;1.73;;;;;;;;;;5057108;27;89723;-56
2023/07/16 07:15:36;;;;;;;3.10;2.23;;;;;;;;;;5060572;27;87661;-56
2023/07/16 07:18:06;;;;;;;5.03;2.30;;;;;;;;;;5058394;27;89962;-56
2023/07/16 07:20:35;;;;;;;2.33;1.80;;;;;;;;;;5060105;27;87941;-56
2023/07/16 07:23:05;;;;;;;3.00;1.93;;;;;;;;;;5060294;27;87390;-56
2023/07/16 07:25:34;;;;;;;3.50;1.77;;;;;;;;;;5058465;27;87334;-57
2023/07/16 07:28:02;;;;;;;3.43;1.80;;;;;;;;;;5042652;27;89569;-56
2023/07/16 07:30:30;;;;;;;1.67;1.57;;;;;;;;;;5039502;27;87588;-57
2023/07/16 07:32:59;;;;;;;2.70;1.40;;;;;;;;;;5039615;27;87712;-56
2023/07/16 07:35:29;;;;;;;2.10;1.33;;;;;;;;;;5039663;27;87884;-57
2023/07/16 07:37:57;;;;;;;4.27;1.73;;;;;;;;;;5040724;27;88009;-56
2023/07/16 07:40:26;;;;;;;2.57;1.43;;;;;;;;;;5039405;27;87981;-56
2023/07/16 07:42:55;;;;;;;1.93;1.30;;;;;;;;;;5053146;27;88100;-56
2023/07/16 07:45:24;;;;;;;2.97;1.50;;;;;;;;;;5057932;27;87608;-56
2023/07/16 07:47:53;;;;;;;3.43;2.03;;;;;;;;;;5049812;27;89816;-56
2023/07/16 07:50:22;;;;;;;2.53;1.43;;;;;;;;;;5039603;27;89129;-56
2023/07/16 07:52:51;;;;;;;2.13;1.43;;;;;;;;;;5049361;27;87943;-56
2023/07/16 07:55:20;;;;;;;2.97;1.80;;;;;;;;;;5049141;27;87718;-56
2023/07/16 07:57:48;;;;;;;3.13;1.67;;;;;;;;;;5041517;27;88464;-56
2023/07/16 08:00:17;;;;;;;2.10;1.60;;;;;;;;;;5047117;27;89064;-56
2023/07/16 08:02:46;;;;;;;3.97;1.73;;;;;;;;;;5047803;27;88808;-56
2023/07/16 08:05:15;;;;;;;2.33;1.50;;;;;;;;;;5028728;27;87506;-56
2023/07/16 08:07:43;;;;;;;2.00;1.43;;;;;;;;;;5049095;27;88636;-56
2023/07/16 08:10:13;;;;;;;3.50;1.50;;;;;;;;;;5040527;27;89527;-58
2023/07/16 08:12:42;;;;;;;3.03;1.40;;;;;;;;;;5043029;27;89005;-58
2023/07/16 08:15:13;;;;;;;5.07;1.50;;;;;;;;;;5059602;27;87695;-58
2023/07/16 08:17:45;;;;;;;2.27;1.30;;;;;;;;;;5057368;27;88540;-58
2023/07/16 08:20:14;;;;;;;3.07;1.20;;;;;;;;;;5058048;27;87471;-57
2023/07/16 08:22:42;;;;;;;3.93;1.90;;;;;;;;;;5053365;27;87896;-57
2023/07/16 08:25:12;;;;;;;3.00;1.40;;;;;;;;;;5040784;27;89159;-56
2023/07/16 08:27:41;;;;;;;4.23;1.70;;;;;;;;;;5038705;27;89700;-58
2023/07/16 08:30:10;;;;;;;2.93;1.37;;;;;;;;;;5038461;27;89237;-59
2023/07/16 08:32:38;;;;;;;4.70;2.07;;;;;;;;;;5038586;27;88873;-58
2023/07/16 08:35:12;;;;;;;5.73;2.57;;;;;;;;;;5038879;27;87648;-58
2023/07/16 08:37:40;;;;;;;6.80;2.07;;;;;;;;;;5038318;27;89819;-57
2023/07/16 08:40:09;;;;;;;4.10;1.60;;;;;;;;;;5038316;27;89150;-57
2023/07/16 08:42:39;;;;;;;3.17;1.47;;;;;;;;;;5038190;28;88808;-59
2023/07/16 08:45:08;;;;;;;2.23;1.43;;;;;;;;;;5038571;28;87837;-57
2023/07/16 08:47:37;;;;;;;3.43;2.00;;;;;;;;;;5038470;27;88963;-57
2023/07/16 08:50:05;;;;;;;5.17;1.30;;;;;;;;;;5037976;27;89056;-57
2023/07/16 08:52:34;;;;;;;5.33;2.57;;;;;;;;;;5037974;28;91875;-57
2023/07/16 08:55:03;;;;;;;3.67;1.30;;;;;;;;;;5038485;27;87634;-57
2023/07/16 08:57:31;;;;;;;1.27;1.13;;;;;;;;;;5038142;27;89574;-58
2023/07/16 09:00:01;;;;;;;2.60;1.67;;;;;;;;;;5038234;28;89150;-57
2023/07/16 09:02:29;;;;;;;2.03;1.57;;;;;;;;;;5038359;27;87910;-58
2023/07/16 09:04:58;;;;;;;4.63;1.43;;;;;;;;;;5038837;27;87706;-60
2023/07/16 09:07:27;;;;;;;2.83;1.23;;;;;;;;;;5038009;27;88055;-56
2023/07/16 09:10:01;;;;;;;1.97;1.33;;;;;;;;;;5037980;27;87391;-57
2023/07/16 09:12:30;;;;;;;4.70;1.50;;;;;;;;;;5057147;27;87454;-57
2023/07/16 09:14:58;;;;;;;1.97;1.33;;;;;;;;;;5058160;27;87869;-58
2023/07/16 09:17:28;;;;;;;2.60;1.67;;;;;;;;;;5044587;27;89674;-58
2023/07/16 09:19:57;;;;;;;4.00;2.10;;;;;;;;;;5017479;28;89069;-58
2023/07/16 09:22:25;;;;;;;4.93;1.60;;;;;;;;;;5017398;28;87697;-58
2023/07/16 09:24:53;;;;;;;3.83;1.23;;;;;;;;;;5018082;28;87676;-57
2023/07/16 09:27:22;;;;;;;3.20;1.80;;;;;;;;;;5017781;28;88634;-57
2023/07/16 09:29:50;;;;;;;3.90;1.77;;;;;;;;;;5037894;27;89062;-57
2023/07/16 09:32:19;;;;;;;2.47;1.50;;;;;;;;;;5037853;27;89020;-56
2023/07/16 09:34:54;;;;;;;4.97;2.07;;;;;;;;;;5045231;27;87971;-58
2023/07/16 09:37:22;;;;;;;5.87;1.70;;;;;;;;;;5057925;27;88565;-56
2023/07/16 09:39:50;;;;;;;3.90;1.80;;;;;;;;;;5057662;27;91534;-56
2023/07/16 09:42:19;;;;;;;3.07;1.73;;;;;;;;;;5057631;27;89910;-56
2023/07/16 09:44:50;;;;;;;2.87;1.50;;;;;;;;;;5058354;27;87580;-55
2023/07/16 09:47:18;;;;;;;5.37;2.13;;;;;;;;;;5042854;27;88647;-55
2023/07/16 09:49:47;;;;;;;3.13;1.77;;;;;;;;;;5037007;28;89180;-56
2023/07/16 09:52:17;;;;;;;7.63;1.83;;;;;;;;;;5036839;27;87678;-56
2023/07/16 09:54:45;;;;;;;4.30;1.67;;;;;;;;;;5037585;27;87538;-56
2023/07/16 09:57:14;;;;;;;6.80;1.83;;;;;;;;;;5037570;27;88591;-55
2023/07/16 09:59:42;;;;;;;3.53;1.30;;;;;;;;;;5037416;27;89527;-53
2023/07/16 10:02:10;;;;;;;1.70;1.33;;;;;;;;;;5036944;27;87965;-56
2023/07/16 10:04:39;;;;;;;11.37;1.70;;;;;;;;;;5035947;27;87916;-56
2023/07/16 10:07:08;;;;;;;5.73;1.30;;;;;;;;;;5035393;28;88625;-54
2023/07/16 10:09:38;;;;;;;4.63;2.00;;;;;;;;;;5048198;27;89223;-56
2023/07/16 10:12:13;;;;;;;4.93;1.53;;;;;;;;;;5047834;27;88142;-54
2023/07/16 10:14:42;;;;;;;3.83;1.73;;;;;;;;;;5051921;27;87661;-54
2023/07/16 10:17:14;;;;;;;4.20;1.80;;;;;;;;;;5042348;27;89673;-54
2023/07/16 10:19:49;;;;;;;4.40;1.43;;;;;;;;;;5037076;27;88109;-54
2023/07/16 10:22:17;;;;;;;4.00;1.87;;;;;;;;;;5037361;27;88922;-54
2023/07/16 10:24:47;;;;;;;6.60;2.03;;;;;;;;;;5037436;27;87687;-54
2023/07/16 10:27:16;;;;;;;8.27;2.20;;;;;;;;;;5036941;27;88485;-54
2023/07/16 10:29:45;;;;;;;2.87;1.50;;;;;;;;;;5036697;27;90525;-54
2023/07/16 10:32:13;;;;;;;3.40;1.53;;;;;;;;;;5036723;27;89362;-54
2023/07/16 10:34:44;;;;;;;2.03;1.50;;;;;;;;;;5036925;27;87592;-54
2023/07/16 10:37:12;;;;;;;3.17;1.73;;;;;;;;;;5037035;27;89798;-54
2023/07/16 10:39:47;;;;;;;6.43;1.87;;;;;;;;;;5036456;28;87567;-54
2023/07/16 10:42:15;;;;;;;3.23;1.43;;;;;;;;;;5037510;27;88994;-54
2023/07/16 10:44:44;;;;;;;3.60;1.20;;;;;;;;;;5040912;27;87686;-54
2023/07/16 10:47:20;;;;;;;1.93;1.43;;;;;;;;;;5041050;28;91229;-54
2023/07/16 10:49:48;;;;;;;2.73;1.50;;;;;;;;;;5040398;27;89005;-54
2023/07/16 10:52:17;;;;;;;2.10;1.37;;;;;;;;;;5039419;27;87802;-54
2023/07/16 10:54:45;;;;;;;2.40;1.20;;;;;;;;;;5039866;27;87999;-54
2023/07/16 10:57:16;;;;;;;4.17;1.23;;;;;;;;;;5040574;27;90086;-54
2023/07/16 10:59:44;;;;;;;3.93;1.60;;;;;;;;;;5040249;27;88949;-54
2023/07/16 11:02:13;;;;;;;2.60;1.30;;;;;;;;;;5039789;27;87437;-54
2023/07/16 11:04:42;;;;;;;2.17;1.40;;;;;;;;;;5040315;27;87378;-54
2023/07/16 11:07:11;;;;;;;2.47;1.50;;;;;;;;;;5040205;27;88728;-54
2023/07/16 11:09:43;;;;;;;3.03;1.63;;;;;;;;;;5039966;27;88144;-54
2023/07/16 11:12:12;;;;;;;2.10;1.07;;;;;;;;;;5039893;27;88787;-54
2023/07/16 11:14:44;;;;;;;2.30;1.50;;;;;;;;;;5040136;27;87550;-54
2023/07/16 11:17:12;;;;;;;2.77;1.60;;;;;;;;;;5039650;27;88609;-54
2023/07/16 11:19:42;;;;;;;2.03;1.30;;;;;;;;;;5039054;27;89186;-54
2023/07/16 11:22:14;;;;;;;1.90;1.20;;;;;;;;;;5039870;27;88787;-54
2023/07/16 11:24:42;;;;;;;3.53;1.30;;;;;;;;;;5040001;27;87843;-54
2023/07/16 11:27:17;;;;;;;2.60;1.50;;;;;;;;;;5039757;27;90452;-54
2023/07/16 11:29:50;;;;;;;1.93;1.30;;;;;;;;;;5040080;27;89819;-54
2023/07/16 11:32:29;;;;;;;3.10;1.50;;;;;;;;;;5039115;27;89039;-54
2023/07/16 11:34:58;;;;;;;2.27;1.37;;;;;;;;;;5039686;27;87654;-54
2023/07/16 11:37:26;;;;;;;2.27;1.60;;;;;;;;;;5039878;27;89785;-54
2023/07/16 11:39:58;;;;;;;4.20;1.97;;;;;;;;;;5043753;27;88058;-54
2023/07/16 11:42:29;;;;;;;5.07;2.33;;;;;;;;;;5048783;27;89189;-54
2023/07/16 11:44:59;;;;;;;1.10;0.90;;;;;;;;;;5054924;27;87957;-55
2023/07/16 11:47:28;;;;;;;3.63;1.30;;;;;;;;;;5059219;27;88529;-55
2023/07/16 11:49:56;;;;;;;4.30;1.47;;;;;;;;;;5043981;27;88589;-54
2023/07/16 11:52:25;;;;;;;4.83;1.33;;;;;;;;;;5039234;27;88952;-54
2023/07/16 11:54:53;;;;;;;2.30;1.70;;;;;;;;;;5039421;27;87662;-54
2023/07/16 11:57:22;;;;;;;1.90;1.07;;;;;;;;;;5039405;27;89707;-55
2023/07/16 11:59:50;;;;;;;7.53;1.30;;;;;;;;;;5045415;27;87741;-55
2023/07/16 12:02:20;;;;;;;8.00;1.60;;;;;;;;;;5051534;27;87488;-55
2023/07/16 12:04:48;;;;;;;3.07;1.70;;;;;;;;;;5059779;27;88747;-56
2023/07/16 12:07:17;;;;;;;3.03;1.30;;;;;;;;;;5047403;27;88696;-55
2023/07/16 12:09:45;;;;;;;3.13;1.03;;;;;;;;;;5038589;27;90195;-55
2023/07/16 12:12:14;;;;;;;4.00;1.43;;;;;;;;;;5047352;27;89491;-55
2023/07/16 12:14:42;;;;;;;4.63;1.37;;;;;;;;;;5038749;27;87651;-55
2023/07/16 12:17:11;;;;;;;1.50;0.83;;;;;;;;;;5039161;27;88452;-55
2023/07/16 12:19:41;;;;;;;2.70;0.93;;;;;;;;;;5041496;27;87592;-54
2023/07/16 12:22:09;;;;;;;2.17;0.93;;;;;;;;;;5038793;27;87713;-54
2023/07/16 12:24:37;;;;;;;2.67;1.23;;;;;;;;;;5052206;27;87800;-55
2023/07/16 12:27:06;;;;;;;2.93;0.90;;;;;;;;;;5059475;27;91172;-55
2023/07/16 12:29:35;;;;;;;1.43;0.73;;;;;;;;;;5058954;27;88161;-54
2023/07/16 12:32:04;;;;;;;2.67;0.93;;;;;;;;;;5058642;27;88744;-54
2023/07/16 12:34:32;;;;;;;3.90;1.20;;;;;;;;;;5058701;27;87936;-55
2023/07/16 12:37:02;;;;;;;3.67;1.13;;;;;;;;;;5058999;27;89715;-55
2023/07/16 12:39:30;;;;;;;6.13;1.27;;;;;;;;;;5059180;27;87459;-56
2023/07/16 12:41:59;;;;;;;1.83;0.93;;;;;;;;;;5056873;27;87649;-56
2023/07/16 12:44:27;;;;;;;3.00;0.77;;;;;;;;;;5058469;27;87449;-56
2023/07/16 12:46:56;;;;;;;0.57;0.57;;;;;;;;;;5045655;27;87839;-56
2023/07/16 12:49:24;;;;;;;2.43;1.00;;;;;;;;;;5038413;27;88961;-56
2023/07/16 12:51:53;;;;;;;2.20;0.97;;;;;;;;;;5039030;27;89083;-56
2023/07/16 12:54:24;;;;;;;1.73;0.80;;;;;;;;;;5037187;28;87681;-55
2023/07/16 12:56:52;;;;;;;2.23;0.80;;;;;;;;;;5048169;27;89791;-56
2023/07/16 12:59:21;;;;;;;1.43;0.70;;;;;;;;;;5057565;27;89193;-56
2023/07/16 13:01:49;;;;;;;2.83;0.90;;;;;;;;;;5048089;27;89986;-57
2023/07/16 13:04:18;;;;;;;3.40;0.73;;;;;;;;;;5038178;27;87667;-57
2023/07/16 13:06:48;;;;;;;1.73;1.03;;;;;;;;;;5036889;27;89008;-55
2023/07/16 13:09:16;;;;;;;3.23;1.07;;;;;;;;;;5038110;27;88843;-55
2023/07/16 13:11:46;;;;;;;1.40;0.67;;;;;;;;;;5038289;27;88861;-55
2023/07/16 13:14:14;;;;;;;2.03;0.80;;;;;;;;;;5038018;27;87670;-55
2023/07/16 13:16:43;;;;;;;5.57;1.20;;;;;;;;;;5038265;27;89369;-55
2023/07/16 13:19:11;;;;;;;4.73;1.00;;;;;;;;;;5037699;27;88060;-55
2023/07/16 13:21:40;;;;;;;1.43;1.10;;;;;;;;;;5037990;27;87546;-55
2023/07/16 13:24:08;;;;;;;5.67;1.47;;;;;;;;;;5037391;27;88260;-55
2023/07/16 13:26:37;;;;;;;5.30;1.10;;;;;;;;;;5037797;27;88518;-55
2023/07/16 13:29:06;;;;;;;1.37;0.87;;;;;;;;;;5037398;27;88485;-56
2023/07/16 13:31:35;;;;;;;3.10;1.30;;;;;;;;;;5037451;27;88975;-55
2023/07/16 13:34:03;;;;;;;3.77;1.07;;;;;;;;;;5037602;27;87653;-56
2023/07/16 13:36:32;;;;;;;5.27;1.13;;;;;;;;;;5037455;27;90133;-55
2023/07/16 13:39:00;;;;;;;2.47;1.00;;;;;;;;;;5037478;28;89363;-55
2023/07/16 13:41:32;;;;;;;1.10;0.80;;;;;;;;;;5037584;27;87887;-56
2023/07/16 13:44:01;;;;;;;1.57;0.67;;;;;;;;;;5037478;27;87963;-56
2023/07/16 13:46:30;;;;;;;2.93;0.97;;;;;;;;;;5037483;28;89696;-56
2023/07/16 13:48:59;;;;;;;1.67;1.10;;;;;;;;;;5036972;27;89061;-56
2023/07/16 13:51:28;;;;;;;5.07;1.33;;;;;;;;;;5037270;27;90141;-55
2023/07/16 13:53:57;;;;;;;1.33;0.80;;;;;;;;;;5037599;27;87643;-56
2023/07/16 13:56:25;;;;;;;2.00;1.03;;;;;;;;;;5037082;27;90005;-56
2023/07/16 13:58:53;;;;;;;1.97;0.93;;;;;;;;;;5037523;27;88040;-55
2023/07/16 14:01:23;;;;;;;2.10;1.10;;;;;;;;;;5037494;27;88809;-57
2023/07/16 14:03:53;;;;;;;5.23;1.20;;;;;;;;;;5037662;27;87690;-56
2023/07/16 14:06:22;;;;;;;1.23;0.90;;;;;;;;;;5037383;28;89581;-55
2023/07/16 14:08:50;;;;;;;2.53;1.13;;;;;;;;;;5037431;28;90535;-56
2023/07/16 14:11:20;;;;;;;1.33;0.90;;;;;;;;;;5037030;27;88859;-55
2023/07/16 14:13:51;;;;;;;3.47;0.93;;;;;;;;;;5037142;28;87989;-56
2023/07/16 14:16:19;;;;;;;2.80;1.20;;;;;;;;;;5036820;27;88859;-56
2023/07/16 14:18:51;;;;;;;3.27;1.10;;;;;;;;;;5040480;27;88261;-56
2023/07/16 14:21:21;;;;;;;4.97;1.13;;;;;;;;;;5040870;27;87935;-55
2023/07/16 14:23:49;;;;;;;3.70;1.17;;;;;;;;;;5042216;27;88259;-54
2023/07/16 14:26:17;;;;;;;4.97;1.30;;;;;;;;;;5042015;27;88594;-55
2023/07/16 14:28:46;;;;;;;5.40;1.27;;;;;;;;;;5041121;27;89283;-55
2023/07/16 14:31:14;;;;;;;3.13;0.90;;;;;;;;;;5040678;27;88522;-54
2023/07/16 14:33:43;;;;;;;3.10;1.50;;;;;;;;;;5040964;27;87950;-55
2023/07/16 14:36:11;;;;;;;1.43;0.90;;;;;;;;;;5040366;27;89791;-56
2023/07/16 14:38:41;;;;;;;3.67;1.43;;;;;;;;;;5039912;27;90151;-55
2023/07/16 14:41:09;;;;;;;2.13;1.27;;;;;;;;;;5040300;27;88767;-55
2023/07/16 14:43:38;;;;;;;2.33;1.00;;;;;;;;;;5040108;27;87626;-57
2023/07/16 14:46:07;;;;;;;3.50;1.43;;;;;;;;;;5040374;27;89647;-55
2023/07/16 14:48:36;;;;;;;2.30;1.13;;;;;;;;;;5040339;27;87949;-56
2023/07/16 14:51:05;;;;;;;1.67;1.00;;;;;;;;;;5040525;27;87871;-55
2023/07/16 14:53:33;;;;;;;3.40;1.00;;;;;;;;;;5040409;27;87751;-56